createdAt,value
2023-04-21T00:01:19.701Z,11.27
2023-04-21T00:03:48.145Z,10.85
2023-04-21T00:06:22.493Z,11.75
2023-04-21T00:08:52.642Z,11.65
2023-04-21T00:11:20.880Z,10.60
2023-04-21T00:13:49.075Z,11.88
2023-04-21T00:16:17.292Z,11.73
2023-04-21T00:18:45.584Z,11.52
2023-04-21T00:21:13.930Z,11.10
2023-04-21T00:23:42.158Z,11.27
2023-04-21T00:26:11.940Z,11.65
2023-04-21T00:28:42.508Z,11.32
2023-04-21T00:31:10.868Z,11.38
2023-04-21T00:33:39.166Z,10.27
2023-04-21T00:36:07.807Z,10.73
2023-04-21T00:38:36.474Z,10.65
2023-04-21T00:41:04.825Z,11.20
2023-04-21T00:43:34.520Z,10.40
2023-04-21T00:46:02.752Z,11.25
2023-04-21T00:48:31.083Z,11.13
2023-04-21T00:51:00.993Z,10.60
2023-04-21T00:53:29.931Z,9.23
2023-04-21T00:55:58.225Z,11.20
2023-04-21T00:58:26.602Z,10.30
2023-04-21T01:00:57.687Z,10.13
2023-04-21T01:03:26.314Z,10.88
2023-04-21T01:05:54.897Z,11.30
2023-04-21T01:08:23.396Z,10.10
2023-04-21T01:10:51.703Z,11.25
2023-04-21T01:13:22.085Z,10.48
2023-04-21T01:15:50.714Z,10.38
2023-04-21T01:18:20.465Z,10.32
2023-04-21T01:20:51.263Z,10.45
2023-04-21T01:23:21.207Z,10.70
2023-04-21T01:25:49.580Z,10.25
2023-04-21T01:28:23.143Z,10.23
2023-04-21T01:30:51.445Z,9.80
2023-04-21T01:33:22.156Z,9.50
2023-04-21T01:35:50.918Z,10.73
2023-04-21T01:38:22.848Z,10.00
2023-04-21T01:40:54.052Z,10.15
2023-04-21T01:43:25.118Z,10.30
2023-04-21T01:45:54.591Z,10.95
2023-04-21T01:48:22.906Z,10.00
2023-04-21T01:50:51.162Z,10.23
2023-04-21T01:53:19.499Z,9.70
2023-04-21T01:55:49.241Z,9.85
2023-04-21T01:58:19.077Z,10.93
2023-04-21T02:00:47.349Z,10.93
2023-04-21T02:03:15.642Z,10.10
2023-04-21T02:05:44.049Z,10.10
2023-04-21T02:08:12.923Z,10.57
2023-04-21T02:10:42.650Z,11.23
2023-04-21T02:13:15.536Z,10.38
2023-04-21T02:15:43.884Z,10.52
2023-04-21T02:18:12.223Z,10.00
2023-04-21T02:20:40.990Z,10.80
2023-04-21T02:23:09.205Z,10.88
2023-04-21T02:25:37.501Z,9.98
2023-04-21T02:28:06.805Z,10.48
2023-04-21T02:30:37.298Z,11.13
2023-04-21T02:33:05.742Z,10.38
2023-04-21T02:35:34.572Z,10.15
2023-04-21T02:38:07.322Z,11.05
2023-04-21T02:40:35.919Z,11.07
2023-04-21T02:43:04.273Z,11.20
2023-04-21T02:45:33.002Z,11.98
2023-04-21T02:48:02.774Z,12.35
2023-04-21T02:50:31.873Z,12.38
2023-04-21T02:53:00.137Z,11.13
2023-04-21T02:55:28.452Z,11.02
2023-04-21T02:57:56.906Z,11.63
2023-04-21T03:00:26.293Z,10.82
2023-04-21T03:02:54.768Z,11.15
2023-04-21T03:05:24.589Z,11.68
2023-04-21T03:07:52.879Z,12.20
2023-04-21T03:10:21.270Z,11.10
2023-04-21T03:12:49.612Z,11.30
2023-04-21T03:15:19.554Z,11.95
2023-04-21T03:17:48.024Z,11.75
2023-04-21T03:20:17.128Z,13.25
2023-04-21T03:22:46.773Z,10.85
2023-04-21T03:25:15.179Z,10.82
2023-04-21T03:27:43.482Z,11.98
2023-04-21T03:30:13.222Z,10.77
2023-04-21T03:32:41.495Z,11.52
2023-04-21T03:35:09.891Z,12.57
2023-04-21T03:37:38.184Z,11.63
2023-04-21T03:40:09.565Z,11.90
2023-04-21T03:42:38.476Z,11.52
2023-04-21T03:45:08.820Z,12.98
2023-04-21T03:47:37.263Z,12.40
2023-04-21T03:50:06.010Z,12.20
2023-04-21T03:52:34.683Z,12.98
2023-04-21T03:55:02.929Z,12.90
2023-04-21T03:57:32.592Z,12.70
2023-04-21T04:00:00.811Z,12.80
2023-04-21T04:02:29.248Z,11.75
2023-04-21T04:04:58.123Z,12.80
2023-04-21T04:07:26.535Z,12.13
2023-04-21T04:09:54.714Z,12.68
2023-04-21T04:12:23.149Z,12.95
2023-04-21T04:14:52.897Z,11.98
2023-04-21T04:17:21.155Z,11.68
2023-04-21T04:19:49.640Z,12.23
2023-04-21T04:22:18.106Z,11.20
2023-04-21T04:24:48.032Z,11.82
2023-04-21T04:27:16.714Z,12.20
2023-04-21T04:29:46.616Z,11.90
2023-04-21T04:32:16.374Z,12.80
2023-04-21T04:34:44.694Z,11.80
2023-04-21T04:37:13.281Z,11.88
2023-04-21T04:39:41.471Z,12.70
2023-04-21T04:42:10.172Z,12.05
2023-04-21T04:44:38.458Z,12.40
2023-04-21T04:47:07.484Z,12.77
2023-04-21T04:49:37.184Z,12.00
2023-04-21T04:52:05.547Z,11.75
2023-04-21T04:54:33.790Z,11.13
2023-04-21T04:57:02.488Z,11.43
2023-04-21T04:59:31.014Z,11.80
2023-04-21T05:01:59.343Z,11.55
2023-04-21T05:04:27.982Z,10.77
2023-04-21T05:06:58.066Z,10.30
2023-04-21T05:09:26.538Z,10.45
2023-04-21T05:11:54.941Z,10.68
2023-04-21T05:14:23.184Z,9.57
2023-04-21T05:16:51.497Z,9.73
2023-04-21T05:19:19.854Z,9.77
2023-04-21T05:21:48.086Z,8.27
2023-04-21T05:24:23.261Z,7.88
2023-04-21T05:26:51.497Z,7.03
2023-04-21T05:29:19.800Z,7.15
2023-04-21T05:31:48.104Z,7.00
2023-04-21T05:34:16.557Z,6.40
2023-04-21T05:36:45.053Z,5.85
2023-04-21T05:39:13.323Z,6.25
2023-04-21T05:41:43.647Z,6.35
2023-04-21T05:44:12.203Z,6.30
2023-04-21T05:46:40.736Z,6.45
2023-04-21T05:49:09.163Z,6.10
2023-04-21T05:51:37.452Z,6.25
2023-04-21T05:54:05.830Z,6.80
2023-04-21T05:56:34.175Z,6.53
2023-04-21T05:59:21.011Z,6.00
2023-04-21T06:01:49.320Z,6.00
2023-04-21T06:04:17.691Z,5.22
2023-04-21T06:06:46.046Z,5.28
2023-04-21T06:09:15.708Z,6.35
2023-04-21T06:11:44.060Z,4.50
2023-04-21T06:14:13.867Z,4.82
2023-04-21T06:16:42.154Z,4.75
2023-04-21T06:19:10.584Z,5.13
2023-04-21T06:21:38.881Z,5.32
2023-04-21T06:24:07.697Z,4.82
2023-04-21T06:26:35.978Z,4.60
2023-04-21T06:29:04.314Z,4.45
2023-04-21T06:31:34.256Z,4.43
2023-04-21T06:34:02.572Z,4.82
2023-04-21T06:36:30.934Z,4.45
2023-04-21T06:38:59.152Z,5.47
2023-04-21T06:41:27.595Z,4.88
2023-04-21T06:43:55.853Z,6.10
2023-04-21T06:46:24.187Z,5.28
2023-04-21T06:48:53.972Z,5.40
2023-04-21T06:51:22.248Z,5.38
2023-04-21T06:53:50.755Z,4.93
2023-04-21T06:56:19.870Z,5.40
2023-04-21T06:58:48.173Z,4.80
2023-04-21T07:01:16.469Z,4.85
2023-04-21T07:03:45.066Z,4.70
2023-04-21T07:06:14.794Z,5.28
2023-04-21T07:09:00.585Z,4.25
2023-04-21T07:11:29.177Z,4.05
2023-04-21T07:14:02.535Z,3.80
2023-04-21T07:16:31.948Z,3.58
2023-04-21T07:19:00.327Z,3.75
2023-04-21T07:21:30.473Z,3.70
2023-04-21T07:23:59.487Z,3.95
2023-04-21T07:26:27.760Z,3.90
2023-04-21T07:28:58.530Z,3.83
2023-04-21T07:31:27.004Z,3.83
2023-04-21T07:33:55.313Z,3.42
2023-04-21T07:36:23.738Z,4.00
2023-04-21T07:38:53.676Z,3.72
2023-04-21T07:41:21.896Z,3.88
2023-04-21T07:43:51.921Z,3.55
2023-04-21T07:46:23.634Z,3.65
2023-04-21T07:48:52.044Z,3.67
2023-04-21T07:51:20.431Z,3.53
2023-04-21T07:53:48.713Z,3.85
2023-04-21T07:56:18.440Z,3.85
2023-04-21T07:58:47.333Z,3.53
2023-04-21T08:01:15.684Z,3.63
2023-04-21T08:03:44.136Z,3.92
2023-04-21T08:06:12.748Z,3.63
2023-04-21T08:08:41.339Z,3.30
2023-04-21T08:11:10.945Z,3.83
2023-04-21T08:13:49.836Z,3.47
2023-04-21T08:16:18.128Z,3.85
2023-04-21T08:18:49.829Z,3.38
2023-04-21T08:21:18.023Z,3.55
2023-04-21T08:23:46.428Z,3.75
2023-04-21T08:26:14.867Z,3.00
2023-04-21T08:28:44.559Z,3.35
2023-04-21T08:31:12.893Z,3.17
2023-04-21T08:33:49.801Z,3.38
2023-04-21T08:36:29.895Z,3.45
2023-04-21T08:38:59.152Z,2.88
2023-04-21T08:41:28.112Z,3.20
2023-04-21T08:43:57.830Z,3.53
2023-04-21T08:46:26.999Z,3.40
2023-04-21T08:48:55.662Z,3.08
2023-04-21T08:51:25.163Z,3.03
2023-04-21T08:54:04.534Z,3.38
2023-04-21T08:56:32.886Z,3.42
2023-04-21T08:59:02.648Z,3.03
2023-04-21T09:01:31.922Z,2.83
2023-04-21T09:04:18.213Z,3.13
2023-04-21T09:06:46.735Z,3.00
2023-04-21T09:09:15.101Z,3.13
2023-04-21T09:11:43.418Z,3.17
2023-04-21T09:14:13.985Z,3.10
2023-04-21T09:16:45.101Z,3.08
2023-04-21T09:19:16.375Z,2.50
2023-04-21T09:21:45.797Z,3.08
2023-04-21T09:24:14.584Z,3.00
2023-04-21T09:26:44.146Z,2.75
2023-04-21T09:29:15.698Z,2.50
2023-04-21T09:31:45.805Z,2.67
2023-04-21T09:34:21.776Z,2.70
2023-04-21T09:36:50.176Z,2.45
2023-04-21T09:39:34.256Z,2.70
2023-04-21T09:42:04.372Z,2.63
2023-04-21T09:44:46.820Z,2.92
2023-04-21T09:47:22.192Z,2.83
2023-04-21T09:49:53.578Z,2.72
2023-04-21T09:52:22.816Z,2.90
2023-04-21T09:54:53.378Z,2.83
2023-04-21T09:57:26.106Z,2.72
2023-04-21T10:00:01.992Z,2.72
2023-04-21T10:02:36.665Z,2.58
2023-04-21T10:05:06.477Z,2.63
2023-04-21T10:07:34.822Z,2.83
2023-04-21T10:10:03.866Z,2.90
2023-04-21T10:12:34.590Z,2.83
2023-04-21T10:15:09.690Z,2.30
2023-04-21T10:17:38.176Z,2.60
2023-04-21T10:20:10.387Z,2.80
2023-04-21T10:22:39.908Z,3.05
2023-04-21T10:25:10.558Z,2.97
2023-04-21T10:27:43.014Z,2.63
2023-04-21T10:30:22.492Z,2.92
2023-04-21T10:33:02.949Z,2.95
2023-04-21T10:35:59.435Z,3.25
2023-04-21T10:38:36.071Z,3.00
2023-04-21T10:41:30.078Z,2.78
2023-04-21T10:43:59.650Z,3.17
2023-04-21T10:46:37.072Z,2.97
2023-04-21T10:49:10.157Z,2.92
2023-04-21T10:52:07.227Z,2.80
2023-04-21T10:54:45.900Z,3.10
2023-04-21T10:57:15.901Z,3.45
2023-04-21T10:59:52.366Z,2.97
2023-04-21T11:02:23.656Z,3.20
2023-04-21T11:04:53.349Z,2.92
2023-04-21T11:07:23.340Z,2.70
2023-04-21T11:09:59.474Z,3.17
2023-04-21T11:12:32.549Z,3.00
2023-04-21T11:15:01.036Z,3.13
2023-04-21T11:17:30.769Z,3.22
2023-04-21T11:19:59.035Z,2.78
2023-04-21T11:22:28.090Z,2.75
2023-04-21T11:24:58.957Z,3.30
2023-04-21T11:30:22.263Z,3.25
2023-04-21T11:32:56.802Z,2.78
2023-04-21T11:35:25.441Z,2.85
2023-04-21T11:37:53.942Z,2.78
2023-04-21T11:40:23.418Z,2.72
2023-04-21T11:42:52.006Z,3.03
2023-04-21T11:45:22.431Z,3.03
2023-04-21T11:47:51.270Z,2.83
2023-04-21T11:50:33.488Z,2.85
2023-04-21T11:53:04.021Z,2.92
2023-04-21T11:55:33.128Z,2.88
2023-04-21T11:58:01.425Z,2.40
2023-04-21T12:00:31.986Z,2.55
2023-04-21T12:03:00.544Z,2.50
2023-04-21T12:05:37.631Z,3.13
2023-04-21T12:08:06.460Z,3.00
2023-04-21T12:10:35.066Z,2.90
2023-04-21T12:13:03.301Z,2.67
2023-04-21T12:15:31.966Z,3.00
2023-04-21T12:18:00.261Z,3.05
2023-04-21T12:20:31.221Z,2.78
2023-04-21T12:23:01.321Z,3.00
2023-04-21T12:25:29.700Z,2.67
2023-04-21T12:28:00.110Z,2.95
2023-04-21T12:30:28.553Z,2.72
2023-04-21T12:32:56.931Z,2.78
2023-04-21T12:35:26.626Z,3.22
2023-04-21T12:37:55.292Z,2.90
2023-04-21T12:40:25.019Z,2.72
2023-04-21T12:42:53.197Z,2.45
2023-04-21T12:45:21.629Z,3.30
2023-04-21T12:47:50.103Z,3.13
2023-04-21T12:50:18.651Z,2.92
2023-04-21T12:52:46.784Z,3.08
2023-04-21T12:55:15.132Z,2.70
2023-04-21T12:57:44.995Z,2.90
2023-04-21T13:00:15.060Z,2.60
2023-04-21T13:02:43.667Z,2.40
2023-04-21T13:05:13.481Z,3.28
2023-04-21T13:07:42.174Z,2.90
2023-04-21T13:10:11.252Z,2.63
2023-04-21T13:12:39.571Z,2.70
2023-04-21T13:15:10.835Z,3.15
2023-04-21T13:17:39.146Z,2.60
2023-04-21T13:20:08.452Z,2.75
2023-04-21T13:22:36.823Z,3.08
2023-04-21T13:25:05.664Z,3.05
2023-04-21T13:27:34.534Z,2.75
2023-04-21T13:30:02.814Z,3.10
2023-04-21T13:32:32.599Z,2.83
2023-04-21T13:35:01.011Z,2.90
2023-04-21T13:37:29.525Z,2.28
2023-04-21T13:39:57.838Z,2.78
2023-04-21T13:42:26.125Z,3.45
2023-04-21T13:44:54.531Z,2.70
2023-04-21T13:47:22.886Z,2.67
2023-04-21T13:49:52.610Z,2.78
2023-04-21T13:52:20.858Z,2.78
2023-04-21T13:54:49.127Z,2.70
2023-04-21T13:57:17.391Z,2.72
2023-04-21T13:59:45.707Z,2.95
2023-04-21T14:02:14.049Z,2.67
2023-04-21T14:04:42.542Z,3.05
2023-04-21T14:07:14.906Z,2.60
2023-04-21T14:09:43.262Z,2.72
2023-04-21T14:12:11.551Z,2.90
2023-04-21T14:14:40.028Z,3.15
2023-04-21T14:17:09.171Z,3.10
2023-04-21T14:19:37.562Z,2.60
2023-04-21T14:22:05.894Z,2.95
2023-04-21T14:24:35.616Z,2.60
2023-04-21T14:27:03.964Z,2.70
2023-04-21T14:29:32.474Z,3.67
2023-04-21T14:32:01.141Z,2.83
2023-04-21T14:34:29.449Z,2.80
2023-04-21T14:36:57.997Z,2.95
2023-04-21T14:39:26.275Z,2.67
2023-04-21T14:41:56.162Z,2.72
2023-04-21T14:44:24.416Z,2.60
2023-04-21T14:47:05.699Z,2.78
2023-04-21T14:49:38.171Z,2.83
2023-04-21T14:52:06.907Z,2.72
2023-04-21T14:54:35.160Z,2.55
2023-04-21T14:57:19.018Z,2.65
2023-04-21T14:59:50.080Z,2.90
2023-04-21T15:02:19.161Z,2.72
2023-04-21T15:04:47.855Z,2.55
2023-04-21T15:07:19.933Z,2.38
2023-04-21T15:09:51.441Z,2.67
2023-04-21T15:12:21.091Z,2.70
2023-04-21T15:14:49.408Z,2.38
2023-04-21T15:17:17.686Z,2.42
2023-04-21T15:19:45.984Z,2.40
2023-04-21T15:22:15.427Z,2.35
2023-04-21T15:24:43.895Z,2.60
2023-04-21T15:27:12.234Z,2.40
2023-04-21T15:29:41.959Z,2.40
2023-04-21T15:32:10.329Z,2.90
2023-04-21T15:34:38.698Z,2.90
2023-04-21T15:37:07.084Z,2.38
2023-04-21T15:39:35.617Z,2.30
2023-04-21T15:42:04.432Z,2.75
2023-04-21T15:44:34.142Z,2.40
2023-04-21T15:47:04.453Z,2.65
2023-04-21T15:49:32.822Z,2.70
2023-04-21T15:52:02.027Z,2.47
2023-04-21T15:54:31.233Z,2.60
2023-04-21T15:56:59.481Z,2.20
2023-04-21T15:59:27.830Z,2.47
2023-04-21T16:01:58.084Z,2.50
2023-04-21T16:04:28.364Z,2.80
2023-04-21T16:06:56.875Z,2.47
2023-04-21T16:09:25.268Z,2.78
2023-04-21T16:11:53.580Z,2.53
2023-04-21T16:14:22.031Z,3.03
2023-04-21T16:16:50.423Z,2.85
2023-04-21T16:19:18.832Z,2.17
2023-04-21T16:21:48.768Z,2.35
2023-04-21T16:24:17.124Z,2.40
2023-04-21T16:26:45.654Z,2.92
2023-04-21T16:29:13.930Z,2.92
2023-04-21T16:31:42.269Z,2.90
2023-04-21T16:34:13.797Z,3.10
2023-04-21T16:36:42.120Z,2.85
2023-04-21T16:39:11.942Z,2.70
2023-04-21T16:41:40.169Z,2.83
2023-04-21T16:44:08.478Z,2.28
2023-04-21T16:46:36.952Z,2.33
2023-04-21T16:49:05.481Z,2.75
2023-04-21T16:51:33.913Z,2.50
2023-04-21T16:54:02.178Z,2.50
2023-04-21T16:56:31.863Z,2.97
2023-04-21T16:59:00.150Z,2.60
2023-04-21T17:01:28.541Z,3.35
2023-04-21T17:03:57.128Z,2.63
2023-04-21T17:06:25.553Z,3.03
2023-04-21T17:08:59.680Z,3.20
2023-04-21T17:11:28.809Z,2.83
2023-04-21T17:13:58.447Z,2.83
2023-04-21T17:16:26.985Z,2.83
2023-04-21T17:18:55.534Z,2.60
2023-04-21T17:21:23.778Z,2.75
2023-04-21T17:23:52.183Z,2.90
2023-04-21T17:26:21.667Z,3.00
2023-04-21T17:28:50.083Z,2.83
2023-04-21T17:31:19.672Z,3.15
2023-04-21T17:33:48.070Z,2.75
2023-04-21T17:36:17.032Z,3.10
2023-04-21T17:38:48.273Z,3.63
2023-04-21T17:41:16.512Z,3.13
2023-04-21T17:43:44.730Z,2.70
2023-04-21T17:46:12.975Z,3.17
2023-04-21T17:48:42.733Z,3.15
2023-04-21T17:51:11.867Z,3.30
2023-04-21T17:53:40.039Z,3.35
2023-04-21T17:56:10.976Z,3.13
2023-04-21T17:58:40.571Z,3.35
2023-04-21T18:01:08.808Z,3.63
2023-04-21T18:03:37.463Z,4.03
2023-04-21T18:06:09.958Z,3.30
2023-04-21T18:08:38.633Z,3.60
2023-04-21T18:11:07.361Z,3.08
2023-04-21T18:13:35.632Z,3.97
2023-04-21T18:16:03.986Z,4.13
2023-04-21T18:18:32.216Z,4.10
2023-04-21T18:21:00.451Z,4.38
2023-04-21T18:23:30.196Z,4.20
2023-04-21T18:25:59.564Z,4.78
2023-04-21T18:28:29.445Z,5.18
2023-04-21T18:30:57.880Z,5.18
2023-04-21T18:33:26.252Z,5.75
2023-04-21T18:35:54.634Z,5.30
2023-04-21T18:38:22.896Z,5.43
2023-04-21T18:40:52.615Z,4.88
2023-04-21T18:43:21.268Z,6.20
2023-04-21T18:45:49.501Z,6.00
2023-04-21T18:48:17.869Z,5.25
2023-04-21T18:50:46.950Z,5.57
2023-04-21T18:53:15.236Z,6.38
2023-04-21T18:55:43.578Z,5.80
2023-04-21T18:58:13.272Z,6.10
2023-04-21T19:00:41.660Z,6.03
2023-04-21T19:03:11.293Z,6.90
2023-04-21T19:05:40.759Z,6.97
2023-04-21T19:08:10.304Z,7.57
2023-04-21T19:10:38.904Z,8.10
2023-04-21T19:13:07.246Z,7.65
2023-04-21T19:15:37.024Z,8.73
2023-04-21T19:18:05.569Z,7.90
2023-04-21T19:20:35.641Z,8.23
2023-04-21T19:23:04.126Z,7.30
2023-04-21T19:25:33.270Z,7.63
2023-04-21T19:28:02.331Z,8.68
2023-04-21T19:30:30.848Z,7.07
2023-04-21T19:33:00.602Z,7.68
2023-04-21T19:35:29.328Z,8.20
2023-04-21T19:37:57.636Z,7.63
2023-04-21T19:40:27.035Z,6.47
2023-04-21T19:42:55.741Z,7.28
2023-04-21T19:45:24.033Z,8.35
2023-04-21T19:47:52.251Z,8.07
2023-04-21T19:50:22.551Z,8.18
2023-04-21T19:52:50.821Z,7.72
2023-04-21T19:55:19.253Z,8.40
2023-04-21T19:57:47.628Z,7.80
2023-04-21T20:00:16.895Z,8.30
2023-04-21T20:02:45.335Z,9.02
2023-04-21T20:05:13.778Z,8.18
2023-04-21T20:07:43.571Z,8.65
2023-04-21T20:10:13.749Z,8.13
2023-04-21T20:12:42.031Z,8.43
2023-04-21T20:15:12.118Z,7.82
2023-04-21T20:17:41.765Z,8.52
2023-04-21T20:20:12.347Z,8.45
2023-04-21T20:22:40.707Z,8.82
2023-04-21T20:25:11.167Z,9.13
2023-04-21T20:27:39.573Z,9.30
2023-04-21T20:30:09.212Z,8.48
2023-04-21T20:32:37.863Z,8.90
2023-04-21T20:35:08.112Z,10.88
2023-04-21T20:37:37.081Z,8.25
2023-04-21T20:40:08.321Z,8.23
2023-04-21T20:42:38.577Z,10.02
2023-04-21T20:45:09.474Z,10.18
2023-04-21T20:47:37.784Z,9.63
2023-04-21T20:50:07.449Z,9.57
2023-04-21T20:52:35.797Z,9.38
2023-04-21T20:55:04.170Z,9.55
2023-04-21T20:57:33.023Z,10.45
2023-04-21T21:00:05.408Z,9.65
2023-04-21T21:02:34.062Z,10.32
2023-04-21T21:05:02.646Z,10.48
2023-04-21T21:07:31.985Z,9.88
2023-04-21T21:10:00.341Z,9.32
2023-04-21T21:12:28.636Z,10.63
2023-04-21T21:14:56.932Z,10.45
2023-04-21T21:17:26.805Z,9.65
2023-04-21T21:19:55.109Z,10.57
2023-04-21T21:22:23.417Z,9.52
2023-04-21T21:24:51.778Z,8.77
2023-04-21T21:27:20.104Z,8.75
2023-04-21T21:29:48.356Z,8.57
2023-04-21T21:32:16.985Z,8.82
2023-04-21T21:34:46.787Z,9.27
2023-04-21T21:37:15.051Z,9.10
2023-04-21T21:39:43.256Z,9.25
2023-04-21T21:42:11.567Z,9.45
2023-04-21T21:44:39.880Z,10.25
2023-04-21T21:47:08.163Z,10.73
2023-04-21T21:49:38.444Z,10.45
2023-04-21T21:52:08.665Z,10.32
2023-04-21T21:54:37.141Z,11.55
2023-04-21T21:57:05.543Z,10.65
2023-04-21T21:59:34.222Z,11.63
2023-04-21T22:02:02.505Z,11.05
2023-04-21T22:04:31.194Z,10.32
2023-04-21T22:06:59.521Z,11.45
2023-04-21T22:09:29.242Z,11.68
2023-04-21T22:11:57.620Z,11.32
2023-04-21T22:14:25.869Z,10.20
2023-04-21T22:16:54.231Z,11.45
2023-04-21T22:19:22.761Z,11.77
2023-04-21T22:21:51.070Z,11.77
2023-04-21T22:24:19.753Z,12.32
2023-04-21T22:26:49.472Z,12.52
2023-04-21T22:29:17.792Z,11.15
2023-04-21T22:31:46.104Z,12.38
2023-04-21T22:34:15.120Z,12.35
2023-04-21T22:36:43.603Z,12.38
2023-04-21T22:39:11.835Z,13.18
2023-04-21T22:41:40.283Z,12.82
2023-04-21T22:44:09.985Z,12.60
2023-04-21T22:46:38.389Z,13.00
2023-04-21T22:49:06.777Z,12.88
2023-04-21T22:51:35.144Z,13.02
2023-04-21T22:54:03.448Z,11.90
2023-04-21T22:56:32.158Z,12.63
2023-04-21T22:59:00.568Z,13.15
2023-04-21T23:01:32.076Z,11.93
2023-04-21T23:04:00.542Z,12.20
2023-04-21T23:06:28.880Z,12.38
2023-04-21T23:08:57.190Z,11.75
2023-04-21T23:11:25.817Z,12.15
2023-04-21T23:13:54.038Z,12.27
2023-04-21T23:16:22.298Z,12.27
2023-04-21T23:18:52.006Z,11.75
2023-04-21T23:21:20.302Z,12.27
2023-04-21T23:23:48.534Z,12.35
2023-04-21T23:26:17.272Z,11.60
2023-04-21T23:28:45.487Z,13.23
2023-04-21T23:31:13.752Z,13.00
2023-04-21T23:33:41.976Z,12.63
2023-04-21T23:36:11.768Z,12.98
2023-04-21T23:38:40.139Z,12.60
2023-04-21T23:41:08.345Z,12.70
2023-04-21T23:43:37.273Z,11.75
2023-04-21T23:46:05.677Z,12.63
2023-04-21T23:48:34.890Z,11.65
2023-04-21T23:51:03.333Z,12.07
2023-04-21T23:53:33.016Z,11.75
2023-04-21T23:56:01.319Z,11.35
2023-04-21T23:58:29.544Z,12.88
